Time;durP1;ratioP1;P1;durP2;ratioP2;P2;SDS_P1;SDS_P2;PMS_P1;PMS_P2;Temp;Humidity;BMP_temperature;BMP_pressure;BME280_temperature;BME280_humidity;BME280_pressure;Samples;Min_cycle;Max_cycle;Signal;HPM_P1;HPM_P2
2022/08/02 00:00:46;;;;;;;2.92;2.30;;;21.00;99.90;;;;;;4985306;28;20213;-69
2022/08/02 00:03:11;;;;;;;2.03;1.80;;;21.10;99.90;;;;;;5003127;28;20240;-69
2022/08/02 00:05:37;;;;;;;5.20;2.38;;;21.10;99.90;;;;;;4986439;28;20181;-69
2022/08/02 00:08:03;;;;;;;3.90;2.20;;;21.10;99.90;;;;;;5001937;28;20195;-68
2022/08/02 00:10:29;;;;;;;2.67;2.00;;;21.10;99.90;;;;;;5007276;28;20208;-71
2022/08/02 00:12:55;;;;;;;4.28;2.20;;;21.10;99.90;;;;;;5006705;28;20213;-69
2022/08/02 00:15:20;;;;;;;3.60;2.40;;;21.10;99.90;;;;;;5001508;28;20201;-69
2022/08/02 00:17:47;;;;;;;7.57;2.65;;;21.20;99.90;;;;;;4985086;28;20220;-69
2022/08/02 00:20:12;;;;;;;5.97;2.58;;;21.20;99.90;;;;;;5007667;28;20237;-69
2022/08/02 00:22:38;;;;;;;5.82;2.47;;;21.20;99.90;;;;;;5004183;28;20213;-69
2022/08/02 00:25:04;;;;;;;6.80;2.72;;;21.20;99.90;;;;;;5001678;28;20280;-69
2022/08/02 00:27:30;;;;;;;3.58;2.50;;;21.20;99.90;;;;;;5008522;28;20296;-69
2022/08/02 00:29:56;;;;;;;3.92;2.70;;;21.20;99.90;;;;;;5010385;28;20630;-69
2022/08/02 00:32:22;;;;;;;5.15;2.58;;;21.30;99.90;;;;;;5004989;28;20221;-69
2022/08/02 00:34:47;;;;;;;4.18;2.28;;;21.30;99.90;;;;;;5010311;28;20245;-69
2022/08/02 00:37:13;;;;;;;6.22;2.75;;;21.20;99.90;;;;;;5011168;28;20212;-69
2022/08/02 00:39:39;;;;;;;5.07;2.22;;;21.20;99.90;;;;;;5007937;28;20225;-69
2022/08/02 00:42:04;;;;;;;6.75;2.67;;;21.20;99.90;;;;;;5005549;28;20204;-70
2022/08/02 00:44:30;;;;;;;3.67;2.40;;;21.20;99.90;;;;;;5008854;28;20220;-70
2022/08/02 00:46:56;;;;;;;4.53;2.50;;;21.20;99.90;;;;;;5009575;28;20185;-70
2022/08/02 00:49:21;;;;;;;3.15;2.63;;;21.10;99.90;;;;;;5001274;28;20218;-70
2022/08/02 00:51:47;;;;;;;5.18;2.63;;;21.10;99.90;;;;;;5009584;28;20208;-70
2022/08/02 00:54:13;;;;;;;4.90;2.33;;;21.20;99.90;;;;;;5010740;28;20216;-70
2022/08/02 00:56:39;;;;;;;3.92;2.22;;;21.10;99.90;;;;;;5008237;28;20185;-70
2022/08/02 00:59:05;;;;;;;3.08;2.22;;;21.10;99.90;;;;;;5005572;28;20178;-71
2022/08/02 01:01:40;;;;;;;3.60;2.28;;;21.10;99.90;;;;;;5010062;28;20761;-70
2022/08/02 01:04:08;;;;;;;2.85;1.83;;;21.10;99.90;;;;;;4987095;28;20235;-70
2022/08/02 01:06:34;;;;;;;3.65;2.45;;;21.10;99.90;;;;;;5005698;28;20206;-71
2022/08/02 01:09:01;;;;;;;3.80;2.10;;;20.90;99.90;;;;;;5005963;28;20205;-70
2022/08/02 01:11:28;;;;;;;4.68;2.35;;;21.00;99.90;;;;;;5009854;28;20203;-70
2022/08/02 01:14:03;;;;;;;5.88;2.40;;;20.90;99.90;;;;;;5009305;28;20233;-70
2022/08/02 01:16:32;;;;;;;5.95;2.47;;;20.90;99.90;;;;;;5001341;28;20213;-71
2022/08/02 01:19:08;;;;;;;5.10;2.20;;;20.90;99.90;;;;;;5011850;28;20197;-70
2022/08/02 01:21:58;;;;;;;5.95;2.47;;;20.90;99.90;;;;;;5007812;28;20205;-70
2022/08/02 01:24:36;;;;;;;4.25;2.67;;;21.00;99.90;;;;;;5002944;28;20260;-70
2022/08/02 01:27:28;;;;;;;5.85;2.70;;;21.00;99.90;;;;;;4991521;28;20212;-70
2022/08/02 01:29:57;;;;;;;7.55;2.75;;;21.00;99.90;;;;;;5005674;28;20240;-70
2022/08/02 01:32:28;;;;;;;6.75;2.17;;;20.90;99.90;;;;;;5004209;28;20206;-70
2022/08/02 01:35:07;;;;;;;4.90;2.40;;;21.00;99.90;;;;;;5006848;28;20181;-70
2022/08/02 01:37:41;;;;;;;3.35;2.40;;;20.90;99.90;;;;;;5008369;28;20206;-71
2022/08/02 01:40:15;;;;;;;4.35;2.05;;;21.00;99.90;;;;;;5001973;28;20609;-70
2022/08/02 01:42:48;;;;;;;8.60;2.20;;;20.90;99.90;;;;;;5004901;28;20219;-69
2022/08/02 01:45:14;;;;;;;5.03;2.38;;;20.80;99.90;;;;;;5003832;28;20204;-70
2022/08/02 01:47:43;;;;;;;5.82;1.80;;;20.70;99.90;;;;;;5007592;28;21773;-70
2022/08/02 01:50:12;;;;;;;9.52;2.25;;;20.50;99.90;;;;;;5005101;28;20264;-70
2022/08/02 01:52:44;;;;;;;6.47;2.22;;;20.40;99.90;;;;;;5006961;28;20627;-70
2022/08/02 01:55:19;;;;;;;3.72;2.22;;;20.40;99.90;;;;;;5002927;28;20644;-70
2022/08/02 01:57:52;;;;;;;4.82;2.35;;;20.50;99.90;;;;;;5006563;28;20226;-69
2022/08/02 02:00:19;;;;;;;4.57;2.05;;;20.60;99.90;;;;;;4987239;28;20212;-70
2022/08/02 02:02:48;;;;;;;5.22;1.92;;;20.70;99.90;;;;;;5007950;28;20271;-70
2022/08/02 02:05:18;;;;;;;6.78;1.98;;;20.60;99.90;;;;;;5006762;28;20189;-70
2022/08/02 02:07:48;;;;;;;6.80;2.25;;;20.60;99.90;;;;;;5005246;28;20267;-70
2022/08/02 02:10:16;;;;;;;5.32;1.92;;;20.60;99.90;;;;;;4989992;28;20832;-71
2022/08/02 02:12:48;;;;;;;6.47;2.15;;;20.60;99.90;;;;;;5007804;28;20328;-70
2022/08/02 02:15:14;;;;;;;8.55;2.42;;;20.60;99.90;;;;;;5004283;28;20216;-71
2022/08/02 02:17:46;;;;;;;4.10;1.98;;;20.50;99.90;;;;;;5007490;28;20185;-71
2022/08/02 02:20:14;;;;;;;6.47;2.10;;;20.50;99.90;;;;;;5003457;28;20176;-70
2022/08/02 02:22:41;;;;;;;8.25;2.53;;;20.40;99.90;;;;;;5006429;28;20232;-70
2022/08/02 02:25:08;;;;;;;6.55;2.42;;;20.30;99.90;;;;;;5003123;28;20209;-70
2022/08/02 02:27:36;;;;;;;4.35;2.17;;;20.40;99.90;;;;;;5008908;28;20205;-69
2022/08/02 02:30:03;;;;;;;7.10;1.65;;;20.40;99.90;;;;;;5008140;28;20713;-70
2022/08/02 02:32:29;;;;;;;7.82;2.25;;;20.60;99.90;;;;;;5001006;28;20256;-71
2022/08/02 02:34:56;;;;;;;6.50;2.17;;;20.50;99.90;;;;;;4990800;28;20184;-70
2022/08/02 02:37:25;;;;;;;3.90;2.08;;;20.50;99.90;;;;;;4991109;28;20258;-69
2022/08/02 02:39:53;;;;;;;5.68;2.47;;;20.40;99.90;;;;;;4989457;28;20209;-70
2022/08/02 02:42:25;;;;;;;5.20;2.45;;;20.50;99.90;;;;;;4995131;28;20213;-70
2022/08/02 02:44:51;;;;;;;6.25;2.08;;;20.50;99.90;;;;;;5000231;28;20243;-70
2022/08/02 02:47:19;;;;;;;4.45;1.88;;;20.50;99.90;;;;;;5002604;28;20625;-70
2022/08/02 02:49:47;;;;;;;5.40;2.15;;;20.50;99.90;;;;;;5001462;28;20208;-70
2022/08/02 02:52:15;;;;;;;6.57;2.13;;;20.60;99.90;;;;;;4986377;28;20693;-70
2022/08/02 02:54:42;;;;;;;8.02;2.58;;;20.40;99.90;;;;;;4999734;28;20220;-70
2022/08/02 02:57:10;;;;;;;5.47;2.30;;;20.50;99.90;;;;;;5002742;28;20225;-71
2022/08/02 02:59:37;;;;;;;9.88;5.65;;;20.40;99.90;;;;;;4999286;28;20182;-70
2022/08/02 03:02:04;;;;;;;9.27;5.65;;;20.40;99.90;;;;;;5003023;28;20622;-71
2022/08/02 03:04:30;;;;;;;6.88;3.47;;;20.40;99.90;;;;;;4999843;28;20221;-70
2022/08/02 03:06:56;;;;;;;3.83;2.83;;;20.30;99.90;;;;;;5003465;28;20205;-70
2022/08/02 03:09:21;;;;;;;11.43;2.33;;;20.20;99.90;;;;;;4999451;28;20259;-70
2022/08/02 03:11:48;;;;;;;6.20;2.92;;;20.20;99.90;;;;;;5001189;28;20212;-70
2022/08/02 03:14:14;;;;;;;8.13;2.95;;;20.10;99.90;;;;;;5001556;28;20228;-70
2022/08/02 03:16:45;;;;;;;7.35;3.47;;;20.10;99.90;;;;;;4998941;28;20780;-70
2022/08/02 03:19:11;;;;;;;6.95;3.00;;;20.10;99.90;;;;;;5003134;28;20208;-71
2022/08/02 03:21:37;;;;;;;6.32;2.33;;;20.00;99.90;;;;;;4986185;28;20245;-70
2022/08/02 03:24:03;;;;;;;3.95;2.10;;;20.00;99.90;;;;;;5002204;28;20499;-70
2022/08/02 03:26:29;;;;;;;4.10;2.58;;;19.90;99.90;;;;;;4981586;28;20200;-70
2022/08/02 03:28:54;;;;;;;5.82;2.65;;;19.90;99.90;;;;;;5001705;28;20174;-70
2022/08/02 03:31:20;;;;;;;4.72;2.35;;;19.80;99.90;;;;;;4982772;28;20220;-70
2022/08/02 03:33:46;;;;;;;5.45;2.42;;;19.90;99.90;;;;;;5000006;28;20687;-69
2022/08/02 03:36:15;;;;;;;6.00;2.60;;;19.90;99.90;;;;;;5002662;28;20671;-70
2022/08/02 03:38:42;;;;;;;8.07;2.60;;;19.80;99.90;;;;;;4999677;28;20325;-70
2022/08/02 03:41:14;;;;;;;6.93;3.20;;;19.90;99.90;;;;;;5001980;28;20181;-70
2022/08/02 03:43:42;;;;;;;6.03;2.85;;;19.80;99.90;;;;;;4984823;28;20217;-70
2022/08/02 03:46:08;;;;;;;5.78;2.65;;;19.80;99.90;;;;;;5003115;28;20270;-70
2022/08/02 03:48:36;;;;;;;4.88;3.22;;;19.80;99.90;;;;;;4999122;28;20224;-70
2022/08/02 03:51:03;;;;;;;4.85;2.60;;;19.90;99.90;;;;;;5003063;28;20201;-70
2022/08/02 03:53:29;;;;;;;7.30;3.08;;;19.90;99.90;;;;;;4981303;28;20208;-71
2022/08/02 03:55:56;;;;;;;7.22;2.95;;;20.00;99.90;;;;;;5002280;28;20192;-70
2022/08/02 03:58:23;;;;;;;7.43;2.90;;;20.00;99.90;;;;;;4998702;28;20734;-70
2022/08/02 04:00:50;;;;;;;8.68;2.92;;;20.00;99.90;;;;;;4995616;28;20228;-71
2022/08/02 04:03:16;;;;;;;6.82;2.65;;;19.90;99.90;;;;;;5001430;28;20212;-70
2022/08/02 04:05:42;;;;;;;7.38;2.63;;;19.90;99.90;;;;;;5000392;28;20212;-70
2022/08/02 04:08:07;;;;;;;6.80;2.67;;;19.90;99.90;;;;;;5000842;28;20176;-70
2022/08/02 04:11:29;;;;;;;6.28;2.63;;;20.10;99.90;;;;;;4998992;28;20216;-70
2022/08/02 04:13:20;;;;;;;4.65;2.70;;;20.10;99.90;;;;;;4998758;28;20242;-71
2022/08/02 04:15:49;;;;;;;4.55;2.63;;;20.00;99.90;;;;;;5001058;28;20709;-71
2022/08/02 04:18:18;;;;;;;5.10;3.00;;;20.00;99.90;;;;;;4998933;28;20217;-70
2022/08/02 04:20:47;;;;;;;7.22;2.95;;;20.00;99.90;;;;;;4998738;28;20205;-70
2022/08/02 04:23:14;;;;;;;8.43;2.90;;;20.10;99.90;;;;;;5004089;28;20197;-72
2022/08/02 04:25:40;;;;;;;7.90;3.15;;;20.00;99.90;;;;;;4998309;28;20220;-70
2022/08/02 04:28:07;;;;;;;4.47;2.60;;;20.00;99.90;;;;;;5001350;28;20209;-70
2022/08/02 04:30:33;;;;;;;7.80;2.75;;;20.10;99.90;;;;;;4998676;28;20207;-70
2022/08/02 04:32:59;;;;;;;6.13;2.55;;;20.80;99.90;;;;;;5001651;28;20296;-70
2022/08/02 04:35:25;;;;;;;5.63;2.38;;;21.10;99.90;;;;;;4998845;28;20184;-71
2022/08/02 04:37:52;;;;;;;6.90;2.67;;;21.10;99.90;;;;;;5000801;28;20257;-71
2022/08/02 04:40:17;;;;;;;5.50;2.47;;;21.20;99.90;;;;;;4998479;28;20213;-70
2022/08/02 04:42:43;;;;;;;6.88;2.67;;;21.20;99.90;;;;;;4998001;28;20256;-71
2022/08/02 04:45:10;;;;;;;4.28;2.03;;;22.00;99.90;;;;;;4983956;28;20215;-71
2022/08/02 04:47:36;;;;;;;3.75;2.38;;;23.90;99.90;;;;;;4997005;28;20193;-71
2022/08/02 04:50:02;;;;;;;4.60;2.35;;;24.90;99.90;;;;;;5001587;28;20176;-71
2022/08/02 04:52:28;;;;;;;7.18;2.45;;;25.90;99.90;;;;;;5005477;28;20215;-71
2022/08/02 04:54:54;;;;;;;7.05;2.45;;;24.90;99.90;;;;;;5007677;28;20193;-71
2022/08/02 05:00:06;;;;;;;6.75;2.15;;;24.80;99.90;;;;;;5002850;28;20335;-71
2022/08/02 05:02:32;;;;;;;6.63;2.30;;;26.20;99.90;;;;;;4989366;28;20181;-68
2022/08/02 05:04:57;;;;;;;4.60;2.20;;;27.20;99.90;;;;;;5006093;28;20177;-68
2022/08/02 05:07:23;;;;;;;6.35;2.00;;;27.50;99.90;;;;;;4999541;28;20205;-68
2022/08/02 05:09:48;;;;;;;4.75;2.08;;;27.10;99.90;;;;;;5008673;28;20197;-71
2022/08/02 05:12:14;;;;;;;5.88;2.03;;;26.40;99.90;;;;;;5005886;28;20229;-69
2022/08/02 05:14:40;;;;;;;8.10;2.33;;;25.40;99.90;;;;;;5009381;28;20233;-68
2022/08/02 05:17:05;;;;;;;4.43;1.90;;;25.00;99.90;;;;;;5006084;28;20170;-69
2022/08/02 05:19:31;;;;;;;4.57;1.90;;;25.80;99.90;;;;;;4992078;28;20552;-68
2022/08/02 05:21:56;;;;;;;3.97;1.92;;;26.50;99.90;;;;;;4991741;28;20205;-68
2022/08/02 05:24:22;;;;;;;7.05;2.85;;;27.10;99.90;;;;;;5003174;28;20288;-68
2022/08/02 05:26:47;;;;;;;6.70;2.65;;;27.90;99.90;;;;;;4994853;28;20201;-69
2022/08/02 05:29:13;;;;;;;8.95;2.00;;;27.60;99.90;;;;;;4991649;28;20189;-68
2022/08/02 05:31:38;;;;;;;7.35;2.42;;;28.40;99.90;;;;;;5006652;28;20202;-68
2022/08/02 05:34:04;;;;;;;6.25;2.58;;;29.70;99.90;;;;;;5004036;28;20255;-69
2022/08/02 05:36:30;;;;;;;6.78;2.10;;;29.60;99.90;;;;;;5009163;28;20205;-68
2022/08/02 05:38:56;;;;;;;5.47;2.13;;;29.30;99.90;;;;;;5009089;28;20204;-68
2022/08/02 05:41:21;;;;;;;5.25;2.38;;;30.10;99.90;;;;;;5003448;28;20193;-68
2022/08/02 05:43:47;;;;;;;5.55;2.13;;;30.60;99.90;;;;;;5009100;23;20229;-72
2022/08/02 05:46:12;;;;;;;5.78;2.30;;;30.80;99.90;;;;;;5013396;28;20223;-73
2022/08/02 05:48:38;;;;;;;6.35;1.90;;;31.20;99.90;;;;;;5012241;28;20259;-74
2022/08/02 05:51:10;;;;;;;7.40;1.73;;;31.90;99.90;;;;;;5009969;28;20211;-73
2022/08/02 05:53:50;;;;;;;5.45;2.35;;;32.30;99.90;;;;;;4988855;28;20219;-73
2022/08/02 05:56:25;;;;;;;5.22;2.22;;;32.00;99.90;;;;;;5012693;28;20168;-73
2022/08/02 05:59:16;;;;;;;5.22;1.88;;;31.40;99.80;;;;;;5012744;28;20302;-73
2022/08/02 06:01:44;;;;;;;6.25;2.33;;;31.10;99.00;;;;;;4991473;28;20205;-74
2022/08/02 06:04:18;;;;;;;4.45;2.17;;;31.40;99.00;;;;;;5013049;28;20212;-73
2022/08/02 06:06:46;;;;;;;6.03;2.40;;;31.80;98.50;;;;;;5003651;28;20204;-73
2022/08/02 06:09:17;;;;;;;9.10;2.42;;;32.60;97.40;;;;;;4995512;28;20625;-73
2022/08/02 06:11:51;;;;;;;4.18;2.50;;;33.00;96.50;;;;;;5012785;28;20220;-73
2022/08/02 06:14:17;;;;;;;6.28;2.63;;;33.60;95.60;;;;;;5013297;28;20227;-73
2022/08/02 06:16:43;;;;;;;7.53;2.50;;;34.20;94.20;;;;;;5012405;28;20192;-72
2022/08/02 06:19:11;;;;;;;6.45;2.60;;;33.80;93.00;;;;;;5014805;28;20199;-72
2022/08/02 06:21:39;;;;;;;6.30;2.50;;;33.80;92.80;;;;;;5010971;28;20223;-73
2022/08/02 06:24:07;;;;;;;5.63;2.67;;;34.20;92.20;;;;;;5012395;28;20205;-74
2022/08/02 06:26:35;;;;;;;6.22;2.42;;;34.80;91.00;;;;;;5012061;28;20161;-73
2022/08/02 06:29:01;;;;;;;6.40;2.58;;;34.40;90.70;;;;;;5012546;28;20227;-73
2022/08/02 06:31:26;;;;;;;8.07;2.53;;;34.30;90.80;;;;;;5011420;28;20212;-74
2022/08/02 06:33:52;;;;;;;7.70;2.53;;;34.00;88.70;;;;;;5011987;28;20239;-73
2022/08/02 06:36:34;;;;;;;5.50;2.53;;;34.70;87.70;;;;;;5008620;28;20300;-74
2022/08/02 06:39:16;;;;;;;5.65;2.55;;;36.10;85.00;;;;;;5006495;28;20205;-73
2022/08/02 06:41:43;;;;;;;5.03;2.30;;;35.10;84.30;;;;;;5011357;28;20204;-73
2022/08/02 06:44:09;;;;;;;7.22;2.30;;;34.60;85.50;;;;;;5008810;28;20208;-73
2022/08/02 06:46:36;;;;;;;6.30;2.50;;;34.90;84.70;;;;;;5011539;28;20697;-73
2022/08/02 06:49:02;;;;;;;4.80;2.15;;;34.50;85.00;;;;;;4993931;28;20283;-73
2022/08/02 06:51:28;;;;;;;5.95;2.60;;;34.80;83.00;;;;;;5010891;28;20259;-73
2022/08/02 06:53:54;;;;;;;59.15;7.13;;;35.20;82.50;;;;;;5013348;28;20212;-72
2022/08/02 06:56:19;;;;;;;7.75;2.20;;;35.50;80.70;;;;;;4993805;28;20372;-72
2022/08/02 06:58:45;;;;;;;10.60;6.63;;;35.50;79.80;;;;;;5011263;28;20199;-73
2022/08/02 07:01:11;;;;;;;21.60;11.82;;;35.60;79.50;;;;;;5011694;28;20211;-74
2022/08/02 07:03:38;;;;;;;39.20;6.90;;;36.20;78.70;;;;;;5011313;28;20244;-72
2022/08/02 07:06:05;;;;;;;3.60;1.83;;;36.20;77.60;;;;;;4994209;28;20196;-72
2022/08/02 07:08:34;;;;;;;4.03;1.98;;;35.90;76.60;;;;;;4992844;28;20195;-72
2022/08/02 07:11:00;;;;;;;6.78;2.50;;;36.10;75.90;;;;;;5011501;28;20234;-73
2022/08/02 07:13:27;;;;;;;16.58;2.55;;;35.30;76.00;;;;;;5011162;28;20232;-74
2022/08/02 07:15:53;;;;;;;10.02;3.95;;;35.20;77.20;;;;;;4993131;28;20241;-73
2022/08/02 07:18:19;;;;;;;6.18;2.17;;;34.50;77.60;;;;;;5001513;28;20200;-73
2022/08/02 07:20:45;;;;;;;5.28;1.63;;;34.30;78.90;;;;;;5011120;28;20200;-73
2022/08/02 07:23:11;;;;;;;10.07;2.25;;;34.40;77.90;;;;;;5011449;28;20545;-75
2022/08/02 07:25:36;;;;;;;5.95;2.13;;;34.40;78.30;;;;;;5002434;28;20216;-72
2022/08/02 07:28:02;;;;;;;5.80;1.70;;;34.70;77.70;;;;;;5008534;28;20226;-72
2022/08/02 07:30:29;;;;;;;4.65;1.52;;;35.70;76.30;;;;;;5009183;28;20250;-73
2022/08/02 07:32:54;;;;;;;3.42;1.70;;;36.20;75.10;;;;;;5010555;28;20709;-72
2022/08/02 07:35:20;;;;;;;9.13;2.88;;;36.40;73.80;;;;;;5008379;28;20272;-73
2022/08/02 07:37:47;;;;;;;8.25;1.98;;;37.20;72.60;;;;;;5008192;28;20179;-73
2022/08/02 07:40:14;;;;;;;5.30;1.85;;;37.00;71.50;;;;;;5010208;28;20218;-72
2022/08/02 07:42:41;;;;;;;6.00;2.05;;;36.90;71.10;;;;;;5008882;28;20235;-73
2022/08/02 07:45:07;;;;;;;7.20;3.35;;;37.50;70.40;;;;;;5006941;28;20266;-73
2022/08/02 07:47:37;;;;;;;4.82;1.90;;;37.50;69.60;;;;;;5009721;28;20196;-73
2022/08/02 07:50:03;;;;;;;6.63;2.80;;;37.30;69.40;;;;;;5008500;28;20172;-74
2022/08/02 07:52:29;;;;;;;6.40;1.70;;;37.30;69.30;;;;;;5010142;28;20204;-73
2022/08/02 07:54:54;;;;;;;9.70;2.55;;;37.00;69.40;;;;;;4993181;28;20561;-74
2022/08/02 07:57:20;;;;;;;5.05;1.77;;;37.20;69.60;;;;;;5011019;28;20713;-75
2022/08/02 07:59:46;;;;;;;8.38;2.22;;;37.20;69.10;;;;;;5008065;28;20223;-74
2022/08/02 08:02:13;;;;;;;19.05;2.90;;;37.10;69.50;;;;;;5009040;28;20168;-75
2022/08/02 08:04:39;;;;;;;4.80;1.80;;;37.40;68.90;;;;;;4992435;28;20642;-74
2022/08/02 08:07:08;;;;;;;4.43;2.08;;;37.70;67.60;;;;;;5010290;28;20208;-74
2022/08/02 08:09:38;;;;;;;10.85;2.67;;;37.20;68.20;;;;;;5000619;28;20599;-72
2022/08/02 08:12:05;;;;;;;5.28;2.00;;;37.30;68.40;;;;;;5011155;28;20199;-74
2022/08/02 08:14:30;;;;;;;3.85;1.63;;;37.10;68.10;;;;;;5010865;28;20223;-74
2022/08/02 08:16:56;;;;;;;6.13;1.70;;;36.90;68.60;;;;;;5011352;28;20184;-73
2022/08/02 08:19:21;;;;;;;4.78;1.85;;;37.30;68.40;;;;;;5011841;28;20201;-74
2022/08/02 08:21:47;;;;;;;4.35;2.03;;;37.40;67.90;;;;;;5010117;28;20196;-74
2022/08/02 08:24:12;;;;;;;3.63;1.88;;;37.20;67.50;;;;;;5011008;28;20204;-74
2022/08/02 08:26:38;;;;;;;2.90;1.55;;;37.00;68.00;;;;;;5010815;28;20246;-73
2022/08/02 08:29:05;;;;;;;6.28;1.83;;;36.60;67.80;;;;;;5013825;28;20175;-74
2022/08/02 08:31:32;;;;;;;3.83;1.90;;;36.60;68.80;;;;;;5009605;28;20219;-74
2022/08/02 08:33:57;;;;;;;3.17;1.75;;;36.50;68.60;;;;;;5008463;28;20250;-74
2022/08/02 08:36:23;;;;;;;11.55;2.50;;;36.30;68.60;;;;;;5010188;28;20287;-75
2022/08/02 08:38:49;;;;;;;3.15;1.65;;;35.60;69.60;;;;;;5009988;28;20197;-74
2022/08/02 08:41:16;;;;;;;3.65;1.73;;;35.90;70.20;;;;;;5011433;28;20169;-73
2022/08/02 08:43:42;;;;;;;2.67;1.30;;;35.60;69.30;;;;;;5011040;28;20208;-75
2022/08/02 08:46:10;;;;;;;5.40;1.50;;;35.50;69.70;;;;;;5010949;28;20211;-74
2022/08/02 08:48:42;;;;;;;4.43;1.88;;;35.80;70.10;;;;;;5012419;28;20212;-76
2022/08/02 08:51:13;;;;;;;12.25;2.92;;;35.40;68.70;;;;;;5014639;28;20677;-75
2022/08/02 08:53:42;;;;;;;2.28;1.23;;;35.30;70.00;;;;;;4998705;28;20232;-75
2022/08/02 08:56:10;;;;;;;10.27;2.42;;;35.40;69.90;;;;;;5010754;28;20176;-76
2022/08/02 08:58:37;;;;;;;3.95;1.33;;;35.50;70.70;;;;;;4996055;28;20211;-74
2022/08/02 09:01:03;;;;;;;14.68;2.65;;;35.10;69.90;;;;;;4996671;28;20660;-74
2022/08/02 09:03:29;;;;;;;3.20;1.50;;;35.70;70.40;;;;;;5013494;28;20200;-75
2022/08/02 09:05:57;;;;;;;4.15;1.38;;;35.60;70.40;;;;;;5013555;28;20310;-74
2022/08/02 09:08:23;;;;;;;4.65;1.42;;;35.50;70.30;;;;;;5010001;28;20173;-73
2022/08/02 09:10:49;;;;;;;6.70;1.65;;;35.40;70.40;;;;;;5013418;28;20165;-75
2022/08/02 09:13:14;;;;;;;9.07;2.05;;;34.10;71.10;;;;;;5012229;28;20220;-75
2022/08/02 09:15:42;;;;;;;5.40;1.92;;;33.80;73.20;;;;;;5013293;28;20209;-74
2022/08/02 09:18:08;;;;;;;3.40;1.42;;;33.70;73.50;;;;;;4995618;28;20208;-74
2022/08/02 09:20:50;;;;;;;3.33;1.48;;;34.00;72.70;;;;;;4995009;28;20219;-74
2022/08/02 09:23:17;;;;;;;7.88;1.70;;;33.90;72.00;;;;;;5011899;28;20241;-74
2022/08/02 09:25:55;;;;;;;3.88;1.75;;;33.60;74.40;;;;;;5013383;28;20196;-75
2022/08/02 09:28:24;;;;;;;4.40;1.75;;;34.00;74.20;;;;;;5010241;28;20221;-73
2022/08/02 09:30:50;;;;;;;14.98;3.42;;;33.90;72.80;;;;;;5013398;28;20196;-75
2022/08/02 09:33:25;;;;;;;7.43;1.95;;;33.90;73.60;;;;;;5012583;28;20216;-75
2022/08/02 09:35:59;;;;;;;14.60;2.88;;;33.90;73.90;;;;;;5002938;28;20196;-74
2022/08/02 09:38:25;;;;;;;6.80;1.80;;;33.60;75.00;;;;;;4995084;28;20188;-74
2022/08/02 09:40:51;;;;;;;9.50;1.95;;;33.20;76.00;;;;;;4995801;28;20533;-75
2022/08/02 09:43:16;;;;;;;4.80;1.63;;;33.40;75.90;;;;;;4995123;28;20208;-75
2022/08/02 09:45:42;;;;;;;10.70;2.53;;;33.20;75.60;;;;;;5011850;28;20295;-75
2022/08/02 09:48:08;;;;;;;15.82;3.30;;;33.10;75.60;;;;;;5012424;28;20197;-75
2022/08/02 09:50:38;;;;;;;8.70;1.90;;;32.70;76.50;;;;;;5012168;28;20204;-75
2022/08/02 09:53:03;;;;;;;2.65;1.30;;;32.20;77.20;;;;;;4997393;28;20304;-75
2022/08/02 09:55:29;;;;;;;3.85;1.58;;;32.30;77.60;;;;;;5012111;28;20251;-75
2022/08/02 09:57:55;;;;;;;8.18;2.15;;;32.00;78.30;;;;;;4995118;28;20207;-75
2022/08/02 10:00:21;;;;;;;3.63;1.95;;;32.40;78.30;;;;;;5008899;28;20748;-74
2022/08/02 10:03:06;;;;;;;4.70;1.48;;;32.20;77.60;;;;;;5012584;28;20209;-75
2022/08/02 10:05:53;;;;;;;8.98;1.98;;;31.90;78.40;;;;;;4994550;28;20189;-75
2022/08/02 10:08:19;;;;;;;16.88;2.70;;;31.70;79.40;;;;;;5012918;28;20165;-75
2022/08/02 10:10:45;;;;;;;4.57;1.58;;;31.30;80.20;;;;;;5012691;28;20244;-74
2022/08/02 10:13:11;;;;;;;7.82;1.80;;;30.60;80.10;;;;;;5012620;28;20216;-74
2022/08/02 10:15:38;;;;;;;11.27;1.92;;;30.40;81.60;;;;;;5012034;28;20228;-74
2022/08/02 10:18:05;;;;;;;6.10;1.75;;;30.60;82.40;;;;;;5011859;28;20228;-73
2022/08/02 10:20:39;;;;;;;6.28;1.85;;;29.90;81.50;;;;;;5011749;28;20169;-75
2022/08/02 10:23:08;;;;;;;12.55;2.33;;;29.90;82.80;;;;;;5009248;28;20178;-74
2022/08/02 10:25:36;;;;;;;1.95;1.20;;;30.30;82.70;;;;;;5003628;28;20320;-74
2022/08/02 10:28:04;;;;;;;25.50;4.07;;;30.00;82.40;;;;;;5011983;28;20241;-74
2022/08/02 10:30:30;;;;;;;27.83;4.07;;;30.00;82.60;;;;;;5011512;28;20644;-73
2022/08/02 10:32:58;;;;;;;59.40;6.65;;;30.00;83.00;;;;;;5011690;28;20221;-74
2022/08/02 10:35:25;;;;;;;11.93;1.70;;;29.80;83.50;;;;;;5011559;28;20193;-74
2022/08/02 10:37:54;;;;;;;10.88;1.92;;;30.10;83.70;;;;;;5012588;28;20654;-74
2022/08/02 10:40:23;;;;;;;8.43;2.03;;;30.30;83.10;;;;;;5011772;28;20213;-74
2022/08/02 10:42:50;;;;;;;8.45;2.20;;;30.50;82.80;;;;;;5001481;28;20741;-74
2022/08/02 10:45:18;;;;;;;5.70;1.55;;;30.90;82.60;;;;;;5008642;28;20209;-74
2022/08/02 10:48:06;;;;;;;3.13;1.58;;;31.40;82.30;;;;;;5001735;28;20201;-74
2022/08/02 10:50:51;;;;;;;4.15;1.40;;;30.40;81.20;;;;;;5009628;28;20177;-75
2022/08/02 10:53:24;;;;;;;8.57;2.28;;;29.60;83.20;;;;;;5010360;28;20246;-74
2022/08/02 10:55:51;;;;;;;6.65;1.60;;;29.90;85.10;;;;;;4993828;28;20204;-74
2022/08/02 10:58:18;;;;;;;4.63;1.58;;;30.00;83.60;;;;;;5011617;28;20292;-74
2022/08/02 11:00:44;;;;;;;8.90;2.15;;;30.40;83.60;;;;;;5011544;28;20197;-75
2022/08/02 11:03:28;;;;;;;6.05;1.40;;;30.70;83.20;;;;;;5011774;28;20211;-76
2022/08/02 11:06:01;;;;;;;4.00;1.20;;;30.40;83.20;;;;;;5010672;28;20205;-75
2022/08/02 11:08:26;;;;;;;5.82;1.52;;;30.40;82.60;;;;;;4983644;28;20186;-76
2022/08/02 11:11:09;;;;;;;6.93;1.90;;;30.20;82.90;;;;;;5011331;28;20199;-75
2022/08/02 11:14:03;;;;;;;11.90;2.28;;;30.40;83.00;;;;;;5011425;28;20212;-75
2022/08/02 11:16:54;;;;;;;14.60;2.72;;;30.40;83.40;;;;;;5009072;28;20219;-75
2022/08/02 11:19:20;;;;;;;5.20;1.67;;;30.30;83.60;;;;;;5007938;28;20193;-75
2022/08/02 11:22:01;;;;;;;6.13;2.00;;;30.50;83.90;;;;;;4998608;28;20228;-75
2022/08/02 11:24:30;;;;;;;7.05;2.63;;;30.60;83.90;;;;;;5008578;28;20624;-76
2022/08/02 11:26:57;;;;;;;13.85;3.50;;;30.80;83.40;;;;;;5011370;28;20196;-75
2022/08/02 11:29:34;;;;;;;7.10;1.90;;;30.40;83.10;;;;;;4993037;28;20704;-72
2022/08/02 11:32:00;;;;;;;7.40;1.52;;;30.10;83.20;;;;;;5007988;28;20545;-73
2022/08/02 11:34:26;;;;;;;8.15;1.85;;;29.70;82.40;;;;;;5003743;28;20201;-74
2022/08/02 11:36:52;;;;;;;5.95;1.35;;;29.70;82.60;;;;;;5011130;28;20229;-74
2022/08/02 11:39:20;;;;;;;7.35;1.65;;;29.90;81.90;;;;;;4993324;28;20196;-75
2022/08/02 11:41:55;;;;;;;2.75;1.10;;;29.80;81.30;;;;;;5011066;28;20204;-74
2022/08/02 11:44:21;;;;;;;2.67;1.17;;;29.80;81.70;;;;;;5007552;28;20263;-73
2022/08/02 11:47:01;;;;;;;2.88;1.30;;;29.60;81.50;;;;;;5027515;22;20704;-70
2022/08/02 11:49:27;;;;;;;2.17;1.33;;;29.60;81.70;;;;;;5007194;28;20287;-70
2022/08/02 11:52:05;;;;;;;2.67;1.33;;;29.30;82.20;;;;;;5006933;28;20197;-70
2022/08/02 11:54:36;;;;;;;3.47;1.30;;;29.40;82.80;;;;;;5007554;28;20240;-70
2022/08/02 11:57:12;;;;;;;3.13;1.40;;;29.40;82.00;;;;;;5005728;28;20571;-70
2022/08/02 11:59:39;;;;;;;4.18;1.38;;;29.30;81.70;;;;;;5002203;28;20169;-70
2022/08/02 12:02:06;;;;;;;3.90;1.42;;;29.10;81.60;;;;;;5006443;28;20681;-70
2022/08/02 12:04:32;;;;;;;3.17;1.30;;;28.90;82.80;;;;;;5008944;28;20248;-70
2022/08/02 12:07:00;;;;;;;3.83;1.45;;;28.90;84.10;;;;;;5003211;28;20703;-70
2022/08/02 12:09:27;;;;;;;3.63;1.40;;;28.90;84.10;;;;;;5003141;28;20280;-70
2022/08/02 12:11:55;;;;;;;4.60;1.70;;;29.10;83.90;;;;;;5007890;28;20223;-69
2022/08/02 12:14:22;;;;;;;4.63;1.90;;;29.20;84.30;;;;;;4992648;28;20733;-68
2022/08/02 12:19:33;;;;;;;3.53;1.98;;;29.50;83.00;;;;;;5006654;28;20622;-69
2022/08/02 12:22:18;;;;;;;5.55;2.40;;;29.30;84.10;;;;;;5011295;28;20217;-69
2022/08/02 12:24:49;;;;;;;4.55;1.33;;;29.40;84.30;;;;;;5007843;28;20311;-70
2022/08/02 12:27:30;;;;;;;5.70;1.55;;;29.20;84.00;;;;;;5009763;28;20228;-69
2022/08/02 12:30:10;;;;;;;5.68;1.90;;;29.20;84.10;;;;;;5009367;28;20235;-70
2022/08/02 12:32:37;;;;;;;5.13;1.65;;;28.70;83.80;;;;;;5007029;28;20662;-69
2022/08/02 12:35:14;;;;;;;4.38;1.85;;;28.70;84.90;;;;;;5007352;28;20541;-69
2022/08/02 12:37:42;;;;;;;3.58;1.80;;;28.60;85.60;;;;;;4996003;28;20233;-70
2022/08/02 12:40:30;;;;;;;4.93;2.10;;;28.50;85.50;;;;;;5008279;28;20197;-70
2022/08/02 12:43:01;;;;;;;4.10;1.95;;;28.40;85.80;;;;;;5007174;28;20250;-70
2022/08/02 12:45:29;;;;;;;2.22;1.52;;;28.30;86.50;;;;;;4995021;28;20720;-70
2022/08/02 12:47:57;;;;;;;6.55;1.70;;;28.30;85.90;;;;;;5009738;28;20224;-70
2022/08/02 12:50:29;;;;;;;3.38;1.30;;;28.40;86.10;;;;;;5005071;28;20174;-68
2022/08/02 12:53:12;;;;;;;3.08;1.73;;;28.40;84.10;;;;;;5010248;28;20166;-70
2022/08/02 12:55:56;;;;;;;3.15;1.50;;;28.40;83.60;;;;;;4993902;28;20228;-70
2022/08/02 12:58:21;;;;;;;3.75;1.63;;;28.40;84.20;;;;;;5005085;28;20216;-70